sensor_id;sensor_type;location;lat;lon;timestamp;temperature;humidity
429;DHT22;201;48.758;9.290;2023-02-28T00:00:13;-1.70;1.00
429;DHT22;201;48.758;9.290;2023-02-28T00:02:41;-1.70;1.00
429;DHT22;201;48.758;9.290;2023-02-28T00:05:08;-1.70;1.00
429;DHT22;201;48.758;9.290;2023-02-28T00:07:34;-1.50;1.00
429;DHT22;201;48.758;9.290;2023-02-28T00:10:00;-1.50;1.00
429;DHT22;201;48.758;9.290;2023-02-28T00:12:26;-1.60;1.00
429;DHT22;201;48.758;9.290;2023-02-28T00:14:51;-1.60;1.00
429;DHT22;201;48.758;9.290;2023-02-28T00:17:18;-1.70;1.00
429;DHT22;201;48.758;9.290;2023-02-28T00:19:49;-1.70;1.00
429;DHT22;201;48.758;9.290;2023-02-28T00:22:20;-1.80;1.00
429;DHT22;201;48.758;9.290;2023-02-28T00:24:46;-1.80;1.00
429;DHT22;201;48.758;9.290;2023-02-28T00:27:13;-1.90;1.00
429;DHT22;201;48.758;9.290;2023-02-28T00:29:38;-1.80;1.00
429;DHT22;201;48.758;9.290;2023-02-28T00:32:04;-1.80;1.00
429;DHT22;201;48.758;9.290;2023-02-28T00:34:30;-1.90;1.00
429;DHT22;201;48.758;9.290;2023-02-28T00:36:56;-1.90;1.00
429;DHT22;201;48.758;9.290;2023-02-28T00:39:21;-1.90;1.00
429;DHT22;201;48.758;9.290;2023-02-28T00:41:47;-1.90;1.00
429;DHT22;201;48.758;9.290;2023-02-28T00:44:13;-1.90;1.00
429;DHT22;201;48.758;9.290;2023-02-28T00:46:38;-1.90;1.00
429;DHT22;201;48.758;9.290;2023-02-28T00:49:04;-1.90;1.00
429;DHT22;201;48.758;9.290;2023-02-28T00:51:30;-1.90;1.00
429;DHT22;201;48.758;9.290;2023-02-28T00:53:55;-1.90;1.00
429;DHT22;201;48.758;9.290;2023-02-28T00:56:21;-1.90;1.00
429;DHT22;201;48.758;9.290;2023-02-28T00:58:46;-1.90;1.00
429;DHT22;201;48.758;9.290;2023-02-28T01:01:12;-1.90;1.00
429;DHT22;201;48.758;9.290;2023-02-28T01:03:37;-1.90;1.00
429;DHT22;201;48.758;9.290;2023-02-28T01:06:04;-1.90;1.00
429;DHT22;201;48.758;9.290;2023-02-28T01:08:30;-2.00;1.00
429;DHT22;201;48.758;9.290;2023-02-28T01:10:55;-1.90;1.00
429;DHT22;201;48.758;9.290;2023-02-28T01:13:21;-1.90;1.00
429;DHT22;201;48.758;9.290;2023-02-28T01:15:53;-2.00;1.00
429;DHT22;201;48.758;9.290;2023-02-28T01:18:21;-2.00;1.00
429;DHT22;201;48.758;9.290;2023-02-28T01:20:48;-2.00;1.00
429;DHT22;201;48.758;9.290;2023-02-28T01:23:13;-2.00;1.00
429;DHT22;201;48.758;9.290;2023-02-28T01:25:39;-2.00;1.00
429;DHT22;201;48.758;9.290;2023-02-28T01:28:05;-2.00;1.00
429;DHT22;201;48.758;9.290;2023-02-28T01:30:32;-2.00;1.00
429;DHT22;201;48.758;9.290;2023-02-28T01:32:58;-2.00;1.00
429;DHT22;201;48.758;9.290;2023-02-28T01:35:24;-2.00;1.00
429;DHT22;201;48.758;9.290;2023-02-28T01:37:49;-2.00;1.00
429;DHT22;201;48.758;9.290;2023-02-28T01:40:15;-2.00;1.00
429;DHT22;201;48.758;9.290;2023-02-28T01:42:41;-2.00;1.00
429;DHT22;201;48.758;9.290;2023-02-28T01:45:28;-2.00;1.00
429;DHT22;201;48.758;9.290;2023-02-28T01:48:02;-2.00;1.00
429;DHT22;201;48.758;9.290;2023-02-28T01:50:32;-2.00;1.00
429;DHT22;201;48.758;9.290;2023-02-28T01:53:02;-2.00;1.00
429;DHT22;201;48.758;9.290;2023-02-28T01:55:29;-2.00;1.00
429;DHT22;201;48.758;9.290;2023-02-28T01:57:58;-2.00;1.00
429;DHT22;201;48.758;9.290;2023-02-28T02:00:27;-2.00;1.00
429;DHT22;201;48.758;9.290;2023-02-28T02:03:00;-2.00;1.00
429;DHT22;201;48.758;9.290;2023-02-28T02:05:29;-2.10;1.00
429;DHT22;201;48.758;9.290;2023-02-28T02:08:00;-2.10;1.00
429;DHT22;201;48.758;9.290;2023-02-28T02:10:50;-2.00;1.00
429;DHT22;201;48.758;9.290;2023-02-28T02:16:17;-2.00;1.00
429;DHT22;201;48.758;9.290;2023-02-28T02:18:53;-2.10;1.00
429;DHT22;201;48.758;9.290;2023-02-28T02:24:24;-2.10;1.00
429;DHT22;201;48.758;9.290;2023-02-28T02:27:14;-2.10;1.00
429;DHT22;201;48.758;9.290;2023-02-28T02:36:07;-2.10;1.00
429;DHT22;201;48.758;9.290;2023-02-28T02:38:49;-2.10;1.00
429;DHT22;201;48.758;9.290;2023-02-28T02:41:33;-2.10;1.00
429;DHT22;201;48.758;9.290;2023-02-28T02:46:39;-2.10;1.00
429;DHT22;201;48.758;9.290;2023-02-28T02:49:09;-2.00;1.00
429;DHT22;201;48.758;9.290;2023-02-28T02:51:38;-2.00;1.00
429;DHT22;201;48.758;9.290;2023-02-28T02:54:20;-2.00;1.00
429;DHT22;201;48.758;9.290;2023-02-28T02:56:48;-2.00;1.00
429;DHT22;201;48.758;9.290;2023-02-28T02:59:18;-2.00;1.00
429;DHT22;201;48.758;9.290;2023-02-28T03:01:51;-2.00;1.00
429;DHT22;201;48.758;9.290;2023-02-28T03:04:20;-2.00;1.00
429;DHT22;201;48.758;9.290;2023-02-28T03:06:47;-2.00;1.00
429;DHT22;201;48.758;9.290;2023-02-28T03:09:13;-1.90;1.00
429;DHT22;201;48.758;9.290;2023-02-28T03:11:40;-1.90;1.00
429;DHT22;201;48.758;9.290;2023-02-28T03:14:19;-1.90;1.00
429;DHT22;201;48.758;9.290;2023-02-28T03:17:19;-1.90;1.00
429;DHT22;201;48.758;9.290;2023-02-28T03:20:11;-1.90;1.00
429;DHT22;201;48.758;9.290;2023-02-28T03:31:12;-2.00;1.00
429;DHT22;201;48.758;9.290;2023-02-28T03:33:47;-1.90;1.00
429;DHT22;201;48.758;9.290;2023-02-28T03:36:29;-1.90;1.00
429;DHT22;201;48.758;9.290;2023-02-28T03:38:58;-1.90;1.00
429;DHT22;201;48.758;9.290;2023-02-28T03:41:40;-1.90;1.00
429;DHT22;201;48.758;9.290;2023-02-28T03:44:14;-1.90;1.00
429;DHT22;201;48.758;9.290;2023-02-28T03:47:03;-1.90;1.00
429;DHT22;201;48.758;9.290;2023-02-28T03:50:21;-1.90;1.00
429;DHT22;201;48.758;9.290;2023-02-28T03:52:31;-1.90;1.00
429;DHT22;201;48.758;9.290;2023-02-28T03:55:02;-1.90;1.00
429;DHT22;201;48.758;9.290;2023-02-28T03:58:26;-1.80;1.00
429;DHT22;201;48.758;9.290;2023-02-28T04:00:31;-1.90;1.00
429;DHT22;201;48.758;9.290;2023-02-28T04:02:59;-1.80;1.00
429;DHT22;201;48.758;9.290;2023-02-28T04:05:25;-1.80;1.00
429;DHT22;201;48.758;9.290;2023-02-28T04:07:52;-1.70;1.00
429;DHT22;201;48.758;9.290;2023-02-28T04:10:18;-1.70;1.00
429;DHT22;201;48.758;9.290;2023-02-28T04:12:43;-1.60;1.00
429;DHT22;201;48.758;9.290;2023-02-28T04:15:09;-1.50;1.00
429;DHT22;201;48.758;9.290;2023-02-28T04:17:36;-1.50;1.00
429;DHT22;201;48.758;9.290;2023-02-28T04:20:01;-1.50;1.00
429;DHT22;201;48.758;9.290;2023-02-28T04:22:29;-1.60;1.00
429;DHT22;201;48.758;9.290;2023-02-28T04:24:54;-1.60;1.00
429;DHT22;201;48.758;9.290;2023-02-28T04:27:21;-1.60;1.00
429;DHT22;201;48.758;9.290;2023-02-28T04:29:46;-1.70;1.00
429;DHT22;201;48.758;9.290;2023-02-28T04:32:12;-1.60;1.00
429;DHT22;201;48.758;9.290;2023-02-28T04:34:38;-1.60;1.00
429;DHT22;201;48.758;9.290;2023-02-28T04:37:04;-1.60;1.00
429;DHT22;201;48.758;9.290;2023-02-28T04:39:29;-1.60;1.00
429;DHT22;201;48.758;9.290;2023-02-28T04:41:55;-1.60;1.00
429;DHT22;201;48.758;9.290;2023-02-28T04:44:21;-1.50;1.00
429;DHT22;201;48.758;9.290;2023-02-28T04:46:48;-1.60;1.00
429;DHT22;201;48.758;9.290;2023-02-28T04:49:14;-1.60;1.00
429;DHT22;201;48.758;9.290;2023-02-28T04:51:41;-1.60;1.00
429;DHT22;201;48.758;9.290;2023-02-28T04:54:06;-1.60;1.00
429;DHT22;201;48.758;9.290;2023-02-28T04:56:33;-1.60;1.00
429;DHT22;201;48.758;9.290;2023-02-28T04:58:58;-1.60;1.00
429;DHT22;201;48.758;9.290;2023-02-28T05:01:26;-1.60;1.00
429;DHT22;201;48.758;9.290;2023-02-28T05:03:53;-1.60;1.00
429;DHT22;201;48.758;9.290;2023-02-28T05:06:20;-1.50;1.00
429;DHT22;201;48.758;9.290;2023-02-28T05:08:46;-1.50;1.00
429;DHT22;201;48.758;9.290;2023-02-28T05:11:21;-1.50;1.00
429;DHT22;201;48.758;9.290;2023-02-28T05:13:48;-1.50;1.00
429;DHT22;201;48.758;9.290;2023-02-28T05:16:14;-1.50;1.00
429;DHT22;201;48.758;9.290;2023-02-28T05:18:40;-1.50;1.00
429;DHT22;201;48.758;9.290;2023-02-28T05:21:12;-1.50;1.00
429;DHT22;201;48.758;9.290;2023-02-28T05:23:43;-1.40;1.00
429;DHT22;201;48.758;9.290;2023-02-28T05:26:08;-1.50;1.00
429;DHT22;201;48.758;9.290;2023-02-28T05:28:34;-1.50;1.00
429;DHT22;201;48.758;9.290;2023-02-28T05:30:59;-1.50;1.00
429;DHT22;201;48.758;9.290;2023-02-28T05:33:25;-1.50;1.00
429;DHT22;201;48.758;9.290;2023-02-28T05:35:50;-1.50;1.00
429;DHT22;201;48.758;9.290;2023-02-28T05:38:16;-1.50;1.00
429;DHT22;201;48.758;9.290;2023-02-28T05:40:42;-1.50;1.00
429;DHT22;201;48.758;9.290;2023-02-28T05:43:10;-1.40;1.00
429;DHT22;201;48.758;9.290;2023-02-28T05:45:36;-1.40;1.00
429;DHT22;201;48.758;9.290;2023-02-28T05:48:01;-1.40;1.00
429;DHT22;201;48.758;9.290;2023-02-28T05:50:27;-1.40;1.00
429;DHT22;201;48.758;9.290;2023-02-28T05:52:52;-1.40;1.00
429;DHT22;201;48.758;9.290;2023-02-28T05:55:18;-1.40;1.00
429;DHT22;201;48.758;9.290;2023-02-28T05:57:44;-1.30;1.00
429;DHT22;201;48.758;9.290;2023-02-28T06:00:10;-1.40;1.00
429;DHT22;201;48.758;9.290;2023-02-28T06:02:37;-1.30;1.00
429;DHT22;201;48.758;9.290;2023-02-28T06:05:03;-1.30;1.00
429;DHT22;201;48.758;9.290;2023-02-28T06:07:29;-1.30;1.00
429;DHT22;201;48.758;9.290;2023-02-28T06:09:54;-1.30;1.00
429;DHT22;201;48.758;9.290;2023-02-28T06:12:20;-1.20;1.00
429;DHT22;201;48.758;9.290;2023-02-28T06:14:45;-1.20;1.00
429;DHT22;201;48.758;9.290;2023-02-28T06:17:11;-1.20;1.00
429;DHT22;201;48.758;9.290;2023-02-28T06:19:37;-1.20;1.00
429;DHT22;201;48.758;9.290;2023-02-28T06:22:05;-1.20;1.00
429;DHT22;201;48.758;9.290;2023-02-28T06:24:30;-1.20;1.00
429;DHT22;201;48.758;9.290;2023-02-28T06:26:57;-1.20;1.00
429;DHT22;201;48.758;9.290;2023-02-28T06:29:24;-1.20;1.00
429;DHT22;201;48.758;9.290;2023-02-28T06:31:50;-1.10;1.00
429;DHT22;201;48.758;9.290;2023-02-28T06:34:16;-1.10;1.00
429;DHT22;201;48.758;9.290;2023-02-28T06:36:42;-1.20;1.00
429;DHT22;201;48.758;9.290;2023-02-28T06:39:08;-1.10;1.00
429;DHT22;201;48.758;9.290;2023-02-28T06:41:34;-1.10;1.00
429;DHT22;201;48.758;9.290;2023-02-28T06:44:04;-1.10;1.00
429;DHT22;201;48.758;9.290;2023-02-28T06:46:31;-1.00;1.00
429;DHT22;201;48.758;9.290;2023-02-28T06:48:56;-1.00;1.00
429;DHT22;201;48.758;9.290;2023-02-28T06:51:22;-1.00;1.00
429;DHT22;201;48.758;9.290;2023-02-28T06:53:50;-0.90;1.00
429;DHT22;201;48.758;9.290;2023-02-28T06:56:17;-0.90;1.00
429;DHT22;201;48.758;9.290;2023-02-28T06:58:46;-0.90;1.00
429;DHT22;201;48.758;9.290;2023-02-28T07:01:13;-0.90;1.00
429;DHT22;201;48.758;9.290;2023-02-28T07:03:39;-0.90;1.00
429;DHT22;201;48.758;9.290;2023-02-28T07:06:05;-0.90;1.00
429;DHT22;201;48.758;9.290;2023-02-28T07:08:31;-0.80;1.00
429;DHT22;201;48.758;9.290;2023-02-28T07:10:57;-0.80;1.00
429;DHT22;201;48.758;9.290;2023-02-28T07:13:23;-0.70;1.00
429;DHT22;201;48.758;9.290;2023-02-28T07:15:56;-0.70;1.00
429;DHT22;201;48.758;9.290;2023-02-28T07:18:22;-0.70;1.00
429;DHT22;201;48.758;9.290;2023-02-28T07:20:48;-0.70;1.00
429;DHT22;201;48.758;9.290;2023-02-28T07:23:14;-0.80;1.00
429;DHT22;201;48.758;9.290;2023-02-28T07:25:39;-0.80;1.00
429;DHT22;201;48.758;9.290;2023-02-28T07:28:04;-0.70;1.00
429;DHT22;201;48.758;9.290;2023-02-28T07:30:30;-0.70;1.00
429;DHT22;201;48.758;9.290;2023-02-28T07:32:56;-0.70;1.00
429;DHT22;201;48.758;9.290;2023-02-28T07:35:22;-0.60;1.00
429;DHT22;201;48.758;9.290;2023-02-28T07:37:48;-0.60;1.00
429;DHT22;201;48.758;9.290;2023-02-28T07:40:14;-0.60;1.00
429;DHT22;201;48.758;9.290;2023-02-28T07:42:40;-0.60;1.00
429;DHT22;201;48.758;9.290;2023-02-28T07:45:07;-0.60;1.00
429;DHT22;201;48.758;9.290;2023-02-28T07:47:33;-0.60;1.00
429;DHT22;201;48.758;9.290;2023-02-28T07:49:59;-0.60;1.00
429;DHT22;201;48.758;9.290;2023-02-28T07:52:25;-0.60;1.00
429;DHT22;201;48.758;9.290;2023-02-28T07:54:51;-0.60;1.00
429;DHT22;201;48.758;9.290;2023-02-28T07:57:16;-0.60;1.00
429;DHT22;201;48.758;9.290;2023-02-28T07:59:42;-0.50;1.00
429;DHT22;201;48.758;9.290;2023-02-28T08:02:17;-0.50;1.00
429;DHT22;201;48.758;9.290;2023-02-28T08:04:43;-0.60;1.00
429;DHT22;201;48.758;9.290;2023-02-28T08:07:09;-0.60;1.00
429;DHT22;201;48.758;9.290;2023-02-28T08:09:39;-0.60;1.00
429;DHT22;201;48.758;9.290;2023-02-28T08:12:05;-0.50;1.00
429;DHT22;201;48.758;9.290;2023-02-28T08:14:31;-0.30;1.00
429;DHT22;201;48.758;9.290;2023-02-28T08:16:57;-0.20;1.00
429;DHT22;201;48.758;9.290;2023-02-28T08:19:22;-0.20;1.00
429;DHT22;201;48.758;9.290;2023-02-28T08:21:48;-0.20;1.00
429;DHT22;201;48.758;9.290;2023-02-28T08:24:13;-0.20;1.00
429;DHT22;201;48.758;9.290;2023-02-28T08:26:39;-0.10;1.00
429;DHT22;201;48.758;9.290;2023-02-28T08:29:04;-0.10;1.00
429;DHT22;201;48.758;9.290;2023-02-28T08:31:30;-0.10;1.00
429;DHT22;201;48.758;9.290;2023-02-28T08:33:55;-0.10;1.00
429;DHT22;201;48.758;9.290;2023-02-28T08:36:24;-0.10;1.00
429;DHT22;201;48.758;9.290;2023-02-28T08:38:50;0.00;1.00
429;DHT22;201;48.758;9.290;2023-02-28T08:41:16;-0.10;1.00
429;DHT22;201;48.758;9.290;2023-02-28T08:43:42;-0.10;1.00
429;DHT22;201;48.758;9.290;2023-02-28T08:46:08;0.00;1.00
429;DHT22;201;48.758;9.290;2023-02-28T08:48:36;0.00;1.00
429;DHT22;201;48.758;9.290;2023-02-28T08:51:15;-0.10;1.00
429;DHT22;201;48.758;9.290;2023-02-28T08:53:44;-0.10;1.00
429;DHT22;201;48.758;9.290;2023-02-28T08:56:13;-0.10;1.00
429;DHT22;201;48.758;9.290;2023-02-28T08:58:39;0.00;1.00
429;DHT22;201;48.758;9.290;2023-02-28T09:01:19;0.10;1.00
429;DHT22;201;48.758;9.290;2023-02-28T09:03:46;0.20;1.00
429;DHT22;201;48.758;9.290;2023-02-28T09:06:13;0.20;1.00
429;DHT22;201;48.758;9.290;2023-02-28T09:08:39;0.20;1.00
429;DHT22;201;48.758;9.290;2023-02-28T09:11:05;0.20;1.00
429;DHT22;201;48.758;9.290;2023-02-28T09:13:31;0.30;1.00
429;DHT22;201;48.758;9.290;2023-02-28T09:16:02;0.30;1.00
429;DHT22;201;48.758;9.290;2023-02-28T09:18:29;0.30;1.00
429;DHT22;201;48.758;9.290;2023-02-28T09:20:55;0.30;1.00
429;DHT22;201;48.758;9.290;2023-02-28T09:23:20;0.40;1.00
429;DHT22;201;48.758;9.290;2023-02-28T09:25:51;0.50;1.00
429;DHT22;201;48.758;9.290;2023-02-28T09:28:17;0.50;1.00
429;DHT22;201;48.758;9.290;2023-02-28T09:30:52;0.60;1.00
429;DHT22;201;48.758;9.290;2023-02-28T09:33:19;0.80;1.00
429;DHT22;201;48.758;9.290;2023-02-28T09:35:48;1.00;1.00
429;DHT22;201;48.758;9.290;2023-02-28T09:38:14;1.10;1.00
429;DHT22;201;48.758;9.290;2023-02-28T09:40:51;1.10;1.00
429;DHT22;201;48.758;9.290;2023-02-28T09:43:20;1.00;1.00
429;DHT22;201;48.758;9.290;2023-02-28T09:45:51;1.00;1.00
429;DHT22;201;48.758;9.290;2023-02-28T09:48:22;1.10;1.00
429;DHT22;201;48.758;9.290;2023-02-28T09:50:55;1.10;1.00
429;DHT22;201;48.758;9.290;2023-02-28T09:53:33;1.10;1.00
429;DHT22;201;48.758;9.290;2023-02-28T09:56:18;1.10;1.00
429;DHT22;201;48.758;9.290;2023-02-28T09:58:56;1.20;1.00
429;DHT22;201;48.758;9.290;2023-02-28T10:04:46;1.20;1.00
429;DHT22;201;48.758;9.290;2023-02-28T10:10:14;1.30;1.00
429;DHT22;201;48.758;9.290;2023-02-28T10:12:45;1.60;1.00
429;DHT22;201;48.758;9.290;2023-02-28T10:15:16;1.80;1.00
429;DHT22;201;48.758;9.290;2023-02-28T10:17:45;1.90;1.00
429;DHT22;201;48.758;9.290;2023-02-28T10:20:20;2.00;1.00
429;DHT22;201;48.758;9.290;2023-02-28T10:23:01;2.10;1.00
429;DHT22;201;48.758;9.290;2023-02-28T10:25:33;2.20;1.00
429;DHT22;201;48.758;9.290;2023-02-28T10:28:08;2.30;1.00
429;DHT22;201;48.758;9.290;2023-02-28T10:30:36;2.40;1.00
429;DHT22;201;48.758;9.290;2023-02-28T10:33:03;2.50;1.00
429;DHT22;201;48.758;9.290;2023-02-28T10:35:29;2.50;1.00
429;DHT22;201;48.758;9.290;2023-02-28T10:37:59;2.50;1.00
429;DHT22;201;48.758;9.290;2023-02-28T10:40:32;2.50;1.00
429;DHT22;201;48.758;9.290;2023-02-28T10:43:00;2.80;1.00
429;DHT22;201;48.758;9.290;2023-02-28T10:45:28;3.20;1.00
429;DHT22;201;48.758;9.290;2023-02-28T10:48:25;3.10;1.00
429;DHT22;201;48.758;9.290;2023-02-28T10:50:53;2.90;1.00
429;DHT22;201;48.758;9.290;2023-02-28T11:03:59;2.60;1.00
429;DHT22;201;48.758;9.290;2023-02-28T11:06:33;2.70;1.00
429;DHT22;201;48.758;9.290;2023-02-28T11:09:03;3.00;1.00
429;DHT22;201;48.758;9.290;2023-02-28T11:11:30;3.30;1.00
429;DHT22;201;48.758;9.290;2023-02-28T11:14:03;3.70;1.00
429;DHT22;201;48.758;9.290;2023-02-28T11:16:37;3.90;1.00
429;DHT22;201;48.758;9.290;2023-02-28T11:19:05;4.30;1.00
429;DHT22;201;48.758;9.290;2023-02-28T11:21:36;4.80;1.00
429;DHT22;201;48.758;9.290;2023-02-28T11:24:19;5.30;1.00
429;DHT22;201;48.758;9.290;2023-02-28T11:26:48;5.20;1.00
429;DHT22;201;48.758;9.290;2023-02-28T11:29:28;5.00;1.00
429;DHT22;201;48.758;9.290;2023-02-28T11:32:16;5.30;1.00
429;DHT22;201;48.758;9.290;2023-02-28T11:34:44;5.70;1.00
429;DHT22;201;48.758;9.290;2023-02-28T11:37:13;6.10;1.00
429;DHT22;201;48.758;9.290;2023-02-28T11:39:39;6.10;1.00
429;DHT22;201;48.758;9.290;2023-02-28T11:42:36;5.90;1.00
429;DHT22;201;48.758;9.290;2023-02-28T11:45:19;5.50;1.00
429;DHT22;201;48.758;9.290;2023-02-28T11:47:54;5.00;1.00
429;DHT22;201;48.758;9.290;2023-02-28T11:50:47;4.90;1.00
429;DHT22;201;48.758;9.290;2023-02-28T11:53:37;5.00;1.00
429;DHT22;201;48.758;9.290;2023-02-28T11:56:10;4.90;1.00
429;DHT22;201;48.758;9.290;2023-02-28T12:07:24;5.30;1.00
429;DHT22;201;48.758;9.290;2023-02-28T12:13:21;5.60;1.00
429;DHT22;201;48.758;9.290;2023-02-28T12:18:42;6.20;1.00
429;DHT22;201;48.758;9.290;2023-02-28T12:27:06;6.50;1.00
429;DHT22;201;48.758;9.290;2023-02-28T12:29:41;6.20;1.00
429;DHT22;201;48.758;9.290;2023-02-28T12:32:25;6.10;1.00
429;DHT22;201;48.758;9.290;2023-02-28T12:35:01;5.90;1.00
429;DHT22;201;48.758;9.290;2023-02-28T12:37:36;5.60;1.00
429;DHT22;201;48.758;9.290;2023-02-28T12:40:19;5.40;1.00
429;DHT22;201;48.758;9.290;2023-02-28T12:42:52;5.30;1.00
429;DHT22;201;48.758;9.290;2023-02-28T12:45:23;5.30;1.00
429;DHT22;201;48.758;9.290;2023-02-28T12:48:00;5.30;1.00
429;DHT22;201;48.758;9.290;2023-02-28T12:50:26;5.10;1.00
429;DHT22;201;48.758;9.290;2023-02-28T12:53:03;5.20;1.00
429;DHT22;201;48.758;9.290;2023-02-28T12:58:41;5.50;1.00
429;DHT22;201;48.758;9.290;2023-02-28T13:09:21;6.00;1.00
429;DHT22;201;48.758;9.290;2023-02-28T13:11:48;6.20;1.00
429;DHT22;201;48.758;9.290;2023-02-28T13:16:59;6.50;1.00
429;DHT22;201;48.758;9.290;2023-02-28T13:19:32;6.40;1.00
429;DHT22;201;48.758;9.290;2023-02-28T13:21:59;6.30;1.00
429;DHT22;201;48.758;9.290;2023-02-28T13:29:34;6.20;1.00
429;DHT22;201;48.758;9.290;2023-02-28T13:34:31;6.20;1.00
429;DHT22;201;48.758;9.290;2023-02-28T13:42:36;6.00;1.00
429;DHT22;201;48.758;9.290;2023-02-28T13:47:42;6.10;1.00
429;DHT22;201;48.758;9.290;2023-02-28T13:58:46;6.10;1.00
429;DHT22;201;48.758;9.290;2023-02-28T14:04:22;5.90;1.00
429;DHT22;201;48.758;9.290;2023-02-28T14:06:55;5.70;1.00
429;DHT22;201;48.758;9.290;2023-02-28T14:09:25;5.80;1.00
429;DHT22;201;48.758;9.290;2023-02-28T14:11:53;6.10;1.00
429;DHT22;201;48.758;9.290;2023-02-28T14:17:15;6.30;1.00
429;DHT22;201;48.758;9.290;2023-02-28T14:19:44;6.30;1.00
429;DHT22;201;48.758;9.290;2023-02-28T14:25:32;6.00;1.00
429;DHT22;201;48.758;9.290;2023-02-28T14:28:14;5.70;1.00
429;DHT22;201;48.758;9.290;2023-02-28T14:33:40;5.90;1.00
429;DHT22;201;48.758;9.290;2023-02-28T14:36:21;5.90;1.00
429;DHT22;201;48.758;9.290;2023-02-28T14:38:57;6.00;1.00
429;DHT22;201;48.758;9.290;2023-02-28T14:41:32;5.90;1.00
429;DHT22;201;48.758;9.290;2023-02-28T14:44:01;6.10;1.00
429;DHT22;201;48.758;9.290;2023-02-28T14:46:36;6.10;1.00
429;DHT22;201;48.758;9.290;2023-02-28T14:49:07;6.10;1.00
429;DHT22;201;48.758;9.290;2023-02-28T14:51:37;6.00;1.00
429;DHT22;201;48.758;9.290;2023-02-28T14:54:03;6.00;1.00
429;DHT22;201;48.758;9.290;2023-02-28T14:56:37;6.00;1.00
429;DHT22;201;48.758;9.290;2023-02-28T14:59:04;5.90;1.00
429;DHT22;201;48.758;9.290;2023-02-28T15:01:31;5.80;1.00
429;DHT22;201;48.758;9.290;2023-02-28T15:04:02;5.50;1.00
429;DHT22;201;48.758;9.290;2023-02-28T15:06:28;5.50;1.00
429;DHT22;201;48.758;9.290;2023-02-28T15:09:08;5.50;1.00
429;DHT22;201;48.758;9.290;2023-02-28T15:11:35;5.40;1.00
429;DHT22;201;48.758;9.290;2023-02-28T15:14:01;5.40;1.00
429;DHT22;201;48.758;9.290;2023-02-28T15:16:36;5.40;1.00
429;DHT22;201;48.758;9.290;2023-02-28T15:19:07;5.30;1.00
429;DHT22;201;48.758;9.290;2023-02-28T15:21:40;5.30;1.00
429;DHT22;201;48.758;9.290;2023-02-28T15:24:24;5.20;1.00
429;DHT22;201;48.758;9.290;2023-02-28T15:26:57;5.20;1.00
429;DHT22;201;48.758;9.290;2023-02-28T15:29:25;5.30;1.00
429;DHT22;201;48.758;9.290;2023-02-28T15:32:00;5.20;1.00
429;DHT22;201;48.758;9.290;2023-02-28T15:34:40;5.10;1.00
429;DHT22;201;48.758;9.290;2023-02-28T15:39:58;5.00;1.00
429;DHT22;201;48.758;9.290;2023-02-28T15:42:29;4.80;1.00
429;DHT22;201;48.758;9.290;2023-02-28T15:44:56;4.80;1.00
429;DHT22;201;48.758;9.290;2023-02-28T15:47:24;4.80;1.00
429;DHT22;201;48.758;9.290;2023-02-28T15:50:03;4.90;1.00
429;DHT22;201;48.758;9.290;2023-02-28T15:52:38;4.90;1.00
429;DHT22;201;48.758;9.290;2023-02-28T15:55:26;4.90;1.00
429;DHT22;201;48.758;9.290;2023-02-28T15:57:59;4.80;1.00
429;DHT22;201;48.758;9.290;2023-02-28T16:00:27;4.80;1.00
429;DHT22;201;48.758;9.290;2023-02-28T16:02:52;4.70;1.00
429;DHT22;201;48.758;9.290;2023-02-28T16:05:22;4.70;1.00
429;DHT22;201;48.758;9.290;2023-02-28T16:07:58;4.60;1.00
429;DHT22;201;48.758;9.290;2023-02-28T16:10:25;4.50;1.00
429;DHT22;201;48.758;9.290;2023-02-28T16:12:56;4.40;1.00
429;DHT22;201;48.758;9.290;2023-02-28T16:15:26;4.30;1.00
429;DHT22;201;48.758;9.290;2023-02-28T16:17:53;4.30;1.00
429;DHT22;201;48.758;9.290;2023-02-28T16:20:24;4.20;1.00
429;DHT22;201;48.758;9.290;2023-02-28T16:22:50;4.00;1.00
429;DHT22;201;48.758;9.290;2023-02-28T16:25:19;4.00;1.00
429;DHT22;201;48.758;9.290;2023-02-28T16:27:47;4.00;1.00
429;DHT22;201;48.758;9.290;2023-02-28T16:30:25;3.90;1.00
429;DHT22;201;48.758;9.290;2023-02-28T16:32:52;3.80;1.00
429;DHT22;201;48.758;9.290;2023-02-28T16:35:18;3.80;1.00
429;DHT22;201;48.758;9.290;2023-02-28T16:37:44;3.70;1.00
429;DHT22;201;48.758;9.290;2023-02-28T16:40:15;3.70;1.00
429;DHT22;201;48.758;9.290;2023-02-28T16:42:42;3.60;1.00
429;DHT22;201;48.758;9.290;2023-02-28T16:45:19;3.60;1.00
429;DHT22;201;48.758;9.290;2023-02-28T16:47:46;3.60;1.00
429;DHT22;201;48.758;9.290;2023-02-28T16:50:32;3.50;1.00
429;DHT22;201;48.758;9.290;2023-02-28T16:52:58;3.40;1.00
429;DHT22;201;48.758;9.290;2023-02-28T16:55:24;3.40;1.00
429;DHT22;201;48.758;9.290;2023-02-28T16:57:56;3.40;1.00
429;DHT22;201;48.758;9.290;2023-02-28T17:00:23;3.30;1.00
429;DHT22;201;48.758;9.290;2023-02-28T17:02:48;3.20;1.00
429;DHT22;201;48.758;9.290;2023-02-28T17:05:14;3.10;1.00
429;DHT22;201;48.758;9.290;2023-02-28T17:07:41;3.10;1.00
429;DHT22;201;48.758;9.290;2023-02-28T17:12:41;3.00;1.00
429;DHT22;201;48.758;9.290;2023-02-28T17:15:08;2.90;1.00
429;DHT22;201;48.758;9.290;2023-02-28T17:17:34;2.90;1.00
429;DHT22;201;48.758;9.290;2023-02-28T17:20:00;2.80;1.00
429;DHT22;201;48.758;9.290;2023-02-28T17:22:25;2.80;1.00
429;DHT22;201;48.758;9.290;2023-02-28T17:24:51;2.80;1.00
429;DHT22;201;48.758;9.290;2023-02-28T17:27:20;2.80;1.00
429;DHT22;201;48.758;9.290;2023-02-28T17:29:46;2.70;1.00
429;DHT22;201;48.758;9.290;2023-02-28T17:32:12;2.70;1.00
429;DHT22;201;48.758;9.290;2023-02-28T17:34:38;2.60;1.00
429;DHT22;201;48.758;9.290;2023-02-28T17:37:03;2.60;1.00
429;DHT22;201;48.758;9.290;2023-02-28T17:39:29;2.60;1.00
429;DHT22;201;48.758;9.290;2023-02-28T17:41:56;2.60;1.00
429;DHT22;201;48.758;9.290;2023-02-28T17:44:23;2.60;1.00
429;DHT22;201;48.758;9.290;2023-02-28T17:46:49;2.50;1.00
429;DHT22;201;48.758;9.290;2023-02-28T17:49:16;2.50;1.00
429;DHT22;201;48.758;9.290;2023-02-28T17:51:42;2.40;1.00
429;DHT22;201;48.758;9.290;2023-02-28T17:54:08;2.40;1.00
429;DHT22;201;48.758;9.290;2023-02-28T17:56:34;2.40;1.00
429;DHT22;201;48.758;9.290;2023-02-28T17:58:59;2.40;1.00
429;DHT22;201;48.758;9.290;2023-02-28T18:01:25;2.40;1.00
429;DHT22;201;48.758;9.290;2023-02-28T18:03:51;2.40;1.00
429;DHT22;201;48.758;9.290;2023-02-28T18:06:37;2.40;1.00
429;DHT22;201;48.758;9.290;2023-02-28T18:09:12;2.40;1.00
429;DHT22;201;48.758;9.290;2023-02-28T18:11:37;2.30;1.00
429;DHT22;201;48.758;9.290;2023-02-28T18:14:07;2.30;1.00
429;DHT22;201;48.758;9.290;2023-02-28T18:16:33;2.30;1.00
429;DHT22;201;48.758;9.290;2023-02-28T18:18:59;2.30;1.00
429;DHT22;201;48.758;9.290;2023-02-28T18:21:24;2.30;1.00
429;DHT22;201;48.758;9.290;2023-02-28T18:23:50;2.30;1.00
429;DHT22;201;48.758;9.290;2023-02-28T18:26:19;2.30;1.00
429;DHT22;201;48.758;9.290;2023-02-28T18:28:45;2.30;1.00
429;DHT22;201;48.758;9.290;2023-02-28T18:31:17;2.20;1.00
429;DHT22;201;48.758;9.290;2023-02-28T18:33:44;2.20;1.00
429;DHT22;201;48.758;9.290;2023-02-28T18:36:11;2.20;1.00
429;DHT22;201;48.758;9.290;2023-02-28T18:38:38;2.20;1.00
429;DHT22;201;48.758;9.290;2023-02-28T18:41:05;2.10;1.00
429;DHT22;201;48.758;9.290;2023-02-28T18:43:32;2.10;1.00
429;DHT22;201;48.758;9.290;2023-02-28T18:46:04;2.10;1.00
429;DHT22;201;48.758;9.290;2023-02-28T18:48:29;2.10;1.00
429;DHT22;201;48.758;9.290;2023-02-28T18:50:55;2.10;1.00
429;DHT22;201;48.758;9.290;2023-02-28T18:53:20;2.00;1.00
429;DHT22;201;48.758;9.290;2023-02-28T18:55:46;2.00;1.00
429;DHT22;201;48.758;9.290;2023-02-28T18:58:11;2.00;1.00
429;DHT22;201;48.758;9.290;2023-02-28T19:00:37;2.00;1.00
429;DHT22;201;48.758;9.290;2023-02-28T19:03:03;2.00;1.00
429;DHT22;201;48.758;9.290;2023-02-28T19:05:28;1.90;1.00
429;DHT22;201;48.758;9.290;2023-02-28T19:07:57;1.90;1.00
429;DHT22;201;48.758;9.290;2023-02-28T19:10:23;1.90;1.00
429;DHT22;201;48.758;9.290;2023-02-28T19:12:49;1.90;1.00